Time;durP1;ratioP1;P1;durP2;ratioP2;P2;SDS_P1;SDS_P2;PMS_P1;PMS_P2;Temp;Humidity;BMP_temperature;BMP_pressure;BME280_temperature;BME280_humidity;BME280_pressure;Samples;Min_cycle;Max_cycle;Signal;HPM_P1;HPM_P2
2020/12/28 00:00:34;;;;;;;1.00;0.40;;;7.40;99.90;;;;;;6181174;23;20154;-80
2020/12/28 00:03:00;;;;;;;0.90;0.40;;;7.40;99.90;;;;;;6182611;23;20272;-81
2020/12/28 00:05:27;;;;;;;0.90;0.50;;;7.50;99.90;;;;;;6205353;23;20142;-81
2020/12/28 00:07:54;;;;;;;0.90;0.40;;;7.50;99.90;;;;;;6202309;23;20153;-80
2020/12/28 00:10:20;;;;;;;0.90;0.40;;;7.40;99.90;;;;;;6205011;23;20137;-80
2020/12/28 00:12:46;;;;;;;1.00;0.50;;;7.40;99.90;;;;;;6206521;23;20612;-80
2020/12/28 00:15:20;;;;;;;1.95;0.50;;;7.40;99.90;;;;;;6205991;23;20165;-81
2020/12/28 00:17:47;;;;;;;0.80;0.40;;;7.40;99.90;;;;;;6203973;23;20153;-81
2020/12/28 00:20:20;;;;;;;1.05;0.50;;;7.40;99.90;;;;;;6205159;23;20145;-81
2020/12/28 00:22:46;;;;;;;1.10;0.40;;;7.40;99.90;;;;;;6186253;23;20192;-81
2020/12/28 00:25:12;;;;;;;1.10;0.50;;;7.30;99.90;;;;;;6183360;23;20156;-81
2020/12/28 00:27:38;;;;;;;0.90;0.50;;;7.30;99.90;;;;;;6184377;23;20170;-81
2020/12/28 00:30:07;;;;;;;0.80;0.40;;;7.30;99.90;;;;;;6183576;23;20553;-81
2020/12/28 00:32:34;;;;;;;0.80;0.40;;;7.30;99.90;;;;;;6183575;23;20526;-81
2020/12/28 00:35:00;;;;;;;0.90;0.40;;;7.30;99.90;;;;;;6184856;23;20646;-81
2020/12/28 00:37:27;;;;;;;0.90;0.45;;;7.30;99.90;;;;;;6183041;23;20200;-82
2020/12/28 00:39:56;;;;;;;0.90;0.40;;;7.30;99.90;;;;;;6183030;23;20161;-82
2020/12/28 00:42:22;;;;;;;1.20;0.40;;;7.20;99.90;;;;;;6180980;23;20521;-81
2020/12/28 00:44:49;;;;;;;0.82;0.40;;;7.20;99.90;;;;;;6183070;23;20142;-82
2020/12/28 00:47:15;;;;;;;0.90;0.40;;;7.20;99.90;;;;;;6181829;23;20541;-82
2020/12/28 00:49:41;;;;;;;1.13;0.50;;;7.20;99.90;;;;;;6180668;23;20146;-82
2020/12/28 00:52:07;;;;;;;0.80;0.40;;;7.20;99.90;;;;;;6182164;23;20269;-82
2020/12/28 00:54:33;;;;;;;0.90;0.40;;;7.20;99.90;;;;;;6180906;23;20623;-82
2020/12/28 00:57:00;;;;;;;1.27;0.40;;;7.20;99.90;;;;;;6182115;23;20604;-82
2020/12/28 00:59:28;;;;;;;0.80;0.40;;;7.20;99.90;;;;;;6180130;23;20181;-82
2020/12/28 01:01:56;;;;;;;1.00;0.40;;;7.20;99.90;;;;;;6204677;23;20236;-82
2020/12/28 01:04:23;;;;;;;0.90;0.40;;;7.20;99.90;;;;;;6180823;23;20165;-82
2020/12/28 01:06:55;;;;;;;0.80;0.40;;;7.20;99.90;;;;;;6180661;23;20496;-82
2020/12/28 01:09:47;;;;;;;0.80;0.35;;;7.20;99.90;;;;;;6180778;23;20453;-82
2020/12/28 01:12:14;;;;;;;0.80;0.40;;;7.20;99.90;;;;;;6182592;23;20141;-82
2020/12/28 01:14:41;;;;;;;0.90;0.40;;;7.20;99.90;;;;;;6182619;23;20146;-82
2020/12/28 01:17:08;;;;;;;1.00;0.40;;;7.20;99.90;;;;;;6188168;23;20153;-82
2020/12/28 01:19:46;;;;;;;0.80;0.40;;;7.20;99.90;;;;;;6181495;23;20134;-81
2020/12/28 01:22:12;;;;;;;0.80;0.40;;;7.20;99.90;;;;;;6180628;23;20157;-81
2020/12/28 01:24:38;;;;;;;0.80;0.40;;;7.20;99.90;;;;;;6180341;23;20794;-81
2020/12/28 01:27:04;;;;;;;1.02;0.40;;;7.20;99.90;;;;;;6205169;23;20569;-82
2020/12/28 01:29:30;;;;;;;2.08;0.40;;;7.30;99.90;;;;;;6204604;23;20145;-82
2020/12/28 01:31:56;;;;;;;0.90;0.40;;;7.30;99.90;;;;;;6155218;23;20153;-82
2020/12/28 01:35:00;;;;;;;0.80;0.40;;;7.30;99.90;;;;;;6119468;23;20302;-81
2020/12/28 01:37:29;;;;;;;1.00;0.40;;;7.30;99.90;;;;;;6094845;23;20158;-81
2020/12/28 01:39:55;;;;;;;0.90;0.40;;;7.30;99.90;;;;;;6109323;23;20568;-81
2020/12/28 01:42:22;;;;;;;0.80;0.40;;;7.30;99.90;;;;;;6181293;23;20530;-81
2020/12/28 01:44:53;;;;;;;0.80;0.40;;;7.30;99.90;;;;;;6180394;23;20134;-82
2020/12/28 01:47:25;;;;;;;0.80;0.40;;;7.30;99.90;;;;;;6155741;23;20173;-81
2020/12/28 01:49:52;;;;;;;0.85;0.40;;;7.30;99.90;;;;;;6182227;23;20154;-81
2020/12/28 01:52:19;;;;;;;0.80;0.40;;;7.30;99.90;;;;;;6182817;23;20146;-81
2020/12/28 01:54:46;;;;;;;1.00;0.50;;;7.30;99.90;;;;;;6131368;23;20150;-82
2020/12/28 01:57:17;;;;;;;1.13;0.40;;;7.30;99.90;;;;;;6155426;23;20142;-82
2020/12/28 01:59:51;;;;;;;0.90;0.40;;;7.40;99.90;;;;;;6180383;23;20130;-81
2020/12/28 02:02:30;;;;;;;0.90;0.40;;;7.40;99.90;;;;;;6180496;23;20170;-81
2020/12/28 02:04:56;;;;;;;0.80;0.40;;;7.40;99.90;;;;;;6162610;23;20292;-80
2020/12/28 02:07:26;;;;;;;0.83;0.40;;;7.40;99.90;;;;;;6189156;23;20177;-81
2020/12/28 02:09:53;;;;;;;1.00;0.40;;;7.40;99.90;;;;;;6164601;23;20142;-81
2020/12/28 02:12:20;;;;;;;0.80;0.40;;;7.50;99.90;;;;;;6191087;23;20152;-81
2020/12/28 02:14:46;;;;;;;0.80;0.40;;;7.40;99.90;;;;;;6215346;23;20290;-82
2020/12/28 02:17:20;;;;;;;1.15;0.38;;;7.40;99.90;;;;;;6189544;23;20158;-81
2020/12/28 02:20:01;;;;;;;0.80;0.40;;;7.40;99.90;;;;;;6165625;23;20173;-81
2020/12/28 02:22:27;;;;;;;1.00;0.40;;;7.40;99.90;;;;;;6163984;23;20577;-81
2020/12/28 02:24:55;;;;;;;0.80;0.40;;;7.40;99.90;;;;;;6159630;23;20172;-81
2020/12/28 02:27:20;;;;;;;0.90;0.40;;;7.40;99.90;;;;;;6161250;23;20257;-81
2020/12/28 02:29:46;;;;;;;0.80;0.40;;;7.40;99.90;;;;;;6183764;23;20517;-81
2020/12/28 02:32:16;;;;;;;0.80;0.35;;;7.50;99.90;;;;;;6183376;23;20146;-81
2020/12/28 02:34:41;;;;;;;0.83;0.40;;;7.50;99.90;;;;;;6184832;23;20600;-80
2020/12/28 02:37:14;;;;;;;0.90;0.40;;;7.60;99.90;;;;;;6157784;23;20184;-80
2020/12/28 02:39:55;;;;;;;0.80;0.30;;;7.60;99.90;;;;;;6184559;23;20134;-81
2020/12/28 02:42:21;;;;;;;0.90;0.50;;;7.60;99.90;;;;;;6181995;23;20172;-81
2020/12/28 02:45:06;;;;;;;0.80;0.40;;;7.60;99.90;;;;;;6203053;23;20200;-80
2020/12/28 02:48:01;;;;;;;0.90;0.40;;;7.60;99.90;;;;;;6102274;23;20163;-80
2020/12/28 02:50:47;;;;;;;0.95;0.40;;;7.50;99.90;;;;;;6184700;23;20511;-80
2020/12/28 02:53:31;;;;;;;0.80;0.40;;;7.50;99.90;;;;;;6185152;23;20177;-82
2020/12/28 02:56:16;;;;;;;0.80;0.40;;;7.50;99.90;;;;;;6188169;23;20135;-81
2020/12/28 02:59:00;;;;;;;0.80;0.30;;;7.50;99.90;;;;;;6183253;23;20134;-81
2020/12/28 03:01:47;;;;;;;0.80;0.40;;;7.50;99.90;;;;;;6183839;23;20136;-81
2020/12/28 03:04:32;;;;;;;1.55;0.40;;;7.50;99.90;;;;;;6185211;23;20162;-83
2020/12/28 03:07:16;;;;;;;0.80;0.40;;;7.50;99.90;;;;;;6181805;23;20753;-83
2020/12/28 03:10:01;;;;;;;0.82;0.40;;;7.40;99.90;;;;;;6161252;23;20141;-83
2020/12/28 03:12:45;;;;;;;0.80;0.40;;;7.40;99.90;;;;;;6183907;23;20170;-82
2020/12/28 03:15:30;;;;;;;1.00;0.50;;;7.40;99.90;;;;;;6184138;23;20205;-83
2020/12/28 03:18:16;;;;;;;0.90;0.40;;;7.40;99.90;;;;;;6140839;23;20155;-83
2020/12/28 03:21:00;;;;;;;0.80;0.40;;;7.40;99.90;;;;;;6195058;23;20176;-82
2020/12/28 03:23:48;;;;;;;0.80;0.40;;;7.30;99.90;;;;;;6161006;23;20536;-83
2020/12/28 03:26:32;;;;;;;0.80;0.40;;;7.30;99.90;;;;;;6183454;23;20157;-82
2020/12/28 03:29:17;;;;;;;0.82;0.38;;;7.30;99.90;;;;;;6183163;23;20512;-83
2020/12/28 03:32:02;;;;;;;0.95;0.40;;;7.30;99.90;;;;;;6183543;23;20172;-81
2020/12/28 03:34:47;;;;;;;0.80;0.30;;;7.30;99.90;;;;;;6183442;23;20634;-81
2020/12/28 03:37:32;;;;;;;1.15;0.30;;;7.30;99.90;;;;;;6182404;23;20170;-82
2020/12/28 03:40:16;;;;;;;1.30;0.40;;;7.20;99.90;;;;;;6181193;23;20454;-82
2020/12/28 03:43:17;;;;;;;0.80;0.30;;;7.30;99.90;;;;;;6041474;23;20223;-83
2020/12/28 03:46:02;;;;;;;0.80;0.40;;;7.30;99.90;;;;;;6172705;23;20192;-83
2020/12/28 03:49:04;;;;;;;0.80;0.40;;;7.30;99.90;;;;;;6119475;23;20648;-83
2020/12/28 03:51:49;;;;;;;1.10;0.40;;;7.30;99.90;;;;;;6174107;23;20180;-82
2020/12/28 03:54:46;;;;;;;0.80;0.40;;;7.30;99.90;;;;;;6076548;23;20153;-82
2020/12/28 03:57:30;;;;;;;0.73;0.30;;;7.30;99.90;;;;;;6181314;23;20134;-83
2020/12/28 04:00:14;;;;;;;0.80;0.40;;;7.30;99.90;;;;;;6182166;23;20463;-83
2020/12/28 04:02:50;;;;;;;0.80;0.30;;;7.30;99.90;;;;;;6158337;23;20609;-83
2020/12/28 04:05:40;;;;;;;0.80;0.40;;;7.40;99.90;;;;;;6182788;23;20142;-83
2020/12/28 04:08:24;;;;;;;0.80;0.40;;;7.40;99.90;;;;;;6181989;23;20134;-83
2020/12/28 04:11:09;;;;;;;0.90;0.40;;;7.30;99.90;;;;;;6180961;23;20501;-83
2020/12/28 04:13:53;;;;;;;1.45;0.38;;;7.40;99.90;;;;;;6181569;23;20495;-83
2020/12/28 04:16:20;;;;;;;0.80;0.35;;;7.40;99.90;;;;;;6182844;23;20252;-84
2020/12/28 04:18:46;;;;;;;0.80;0.40;;;7.40;99.90;;;;;;6162420;23;20146;-83
2020/12/28 04:21:13;;;;;;;0.80;0.40;;;7.50;99.90;;;;;;6181025;23;20196;-84
2020/12/28 04:23:39;;;;;;;0.80;0.40;;;7.50;99.90;;;;;;6182365;23;20200;-84
2020/12/28 04:26:08;;;;;;;0.85;0.38;;;7.50;99.90;;;;;;6156428;23;20173;-84
2020/12/28 04:28:34;;;;;;;0.80;0.40;;;7.40;99.90;;;;;;6155822;23;20145;-84
2020/12/28 04:31:11;;;;;;;0.80;0.40;;;7.40;99.90;;;;;;6205726;23;20521;-83
2020/12/28 04:33:38;;;;;;;0.80;0.40;;;7.30;99.90;;;;;;6156417;23;20240;-84
2020/12/28 04:36:04;;;;;;;0.80;0.40;;;7.30;99.90;;;;;;6206000;23;20153;-84
2020/12/28 04:38:30;;;;;;;1.40;0.50;;;7.20;99.90;;;;;;6179570;23;20228;-83
2020/12/28 04:40:57;;;;;;;0.80;0.40;;;7.20;99.90;;;;;;6181996;23;20224;-83
2020/12/28 04:43:26;;;;;;;1.10;0.40;;;7.20;99.90;;;;;;6182400;23;20542;-83
2020/12/28 04:46:02;;;;;;;0.90;0.50;;;7.20;99.90;;;;;;6182137;23;20544;-83
2020/12/28 04:48:32;;;;;;;0.80;0.40;;;7.30;99.90;;;;;;6181959;23;20222;-83
2020/12/28 04:51:00;;;;;;;0.90;0.40;;;7.40;99.90;;;;;;6205676;23;20161;-83
2020/12/28 04:53:28;;;;;;;0.77;0.40;;;7.40;99.90;;;;;;6181909;23;20245;-84
2020/12/28 04:55:54;;;;;;;0.90;0.45;;;7.40;99.90;;;;;;6188003;23;20142;-83
2020/12/28 04:58:20;;;;;;;0.90;0.40;;;7.50;99.90;;;;;;6181977;23;20224;-84
2020/12/28 05:00:57;;;;;;;0.80;0.40;;;7.50;99.90;;;;;;6180433;23;20229;-84
2020/12/28 05:03:24;;;;;;;2.30;0.40;;;7.50;99.90;;;;;;6180419;23;20223;-83
2020/12/28 05:05:50;;;;;;;0.88;0.40;;;7.50;99.90;;;;;;6182205;23;20176;-83
2020/12/28 05:08:19;;;;;;;0.80;0.40;;;7.50;99.90;;;;;;6181580;23;20145;-84
2020/12/28 05:10:45;;;;;;;0.90;0.40;;;7.40;99.90;;;;;;6180317;23;21039;-83
2020/12/28 05:13:13;;;;;;;1.10;0.40;;;7.30;99.90;;;;;;6182026;23;20245;-83
2020/12/28 05:15:57;;;;;;;0.90;0.45;;;7.30;99.90;;;;;;6205537;23;20584;-83
2020/12/28 05:18:24;;;;;;;0.95;0.50;;;7.20;99.90;;;;;;6180097;23;20212;-84
2020/12/28 05:20:51;;;;;;;1.70;0.43;;;7.20;99.90;;;;;;6181762;23;20485;-83
2020/12/28 05:23:18;;;;;;;0.90;0.47;;;7.10;99.90;;;;;;6182281;23;20853;-82
2020/12/28 05:25:53;;;;;;;0.80;0.40;;;7.10;99.90;;;;;;6180559;23;20481;-83
2020/12/28 05:28:26;;;;;;;0.95;0.45;;;7.10;99.90;;;;;;6181626;23;20134;-83
2020/12/28 05:31:06;;;;;;;0.90;0.50;;;7.10;99.90;;;;;;6182081;23;20130;-84
2020/12/28 05:33:33;;;;;;;1.10;0.77;;;7.10;99.90;;;;;;6161352;23;20177;-84
2020/12/28 05:35:59;;;;;;;1.10;0.57;;;7.10;99.90;;;;;;6180093;23;20184;-83
2020/12/28 05:38:28;;;;;;;0.90;0.50;;;7.10;99.90;;;;;;6181655;23;20154;-84
2020/12/28 05:41:04;;;;;;;0.80;0.40;;;7.00;99.90;;;;;;6181615;23;20141;-84
2020/12/28 05:43:31;;;;;;;1.75;0.45;;;7.00;99.90;;;;;;6183029;23;20243;-84
2020/12/28 05:45:57;;;;;;;1.23;0.55;;;7.00;99.90;;;;;;6183671;23;20200;-84
2020/12/28 05:48:25;;;;;;;0.80;0.40;;;7.00;99.90;;;;;;6183553;23;20161;-83
2020/12/28 05:50:58;;;;;;;0.80;0.40;;;7.00;99.90;;;;;;6183334;23;20517;-83
2020/12/28 05:53:25;;;;;;;0.90;0.50;;;7.00;99.90;;;;;;6182467;23;20162;-83
2020/12/28 05:55:52;;;;;;;0.90;0.40;;;7.10;99.90;;;;;;6182217;23;20228;-83
2020/12/28 05:58:19;;;;;;;1.15;0.40;;;7.10;99.90;;;;;;6183573;23;20153;-83
2020/12/28 06:00:48;;;;;;;0.93;0.43;;;7.00;99.90;;;;;;6183915;23;20149;-83
2020/12/28 06:03:25;;;;;;;0.80;0.40;;;7.10;99.90;;;;;;6207917;23;20169;-83
2020/12/28 06:05:55;;;;;;;0.90;0.40;;;7.00;99.90;;;;;;6184035;23;20141;-84
2020/12/28 06:08:22;;;;;;;0.90;0.40;;;7.00;99.90;;;;;;6207061;23;20154;-83
2020/12/28 06:10:48;;;;;;;0.80;0.40;;;7.00;99.90;;;;;;6188328;23;20138;-83
2020/12/28 06:13:24;;;;;;;0.80;0.40;;;7.00;99.90;;;;;;6157866;23;20172;-84
2020/12/28 06:16:04;;;;;;;0.90;0.40;;;7.00;99.90;;;;;;6182870;23;20161;-83
2020/12/28 06:18:30;;;;;;;1.00;0.40;;;7.00;99.90;;;;;;6181982;23;20145;-83
2020/12/28 06:20:56;;;;;;;1.00;0.40;;;7.00;99.90;;;;;;6183446;23;20195;-83
2020/12/28 06:23:27;;;;;;;1.00;0.40;;;7.00;99.90;;;;;;6182000;23;20177;-83
2020/12/28 06:25:56;;;;;;;0.80;0.40;;;6.90;99.90;;;;;;6206833;23;20169;-83
2020/12/28 06:28:28;;;;;;;0.80;0.40;;;6.90;99.90;;;;;;6182658;23;20594;-84
2020/12/28 06:31:08;;;;;;;1.55;0.40;;;6.90;99.90;;;;;;6157326;23;20133;-83
2020/12/28 06:33:34;;;;;;;0.90;0.40;;;6.90;99.90;;;;;;6182868;23;20161;-84
2020/12/28 06:36:00;;;;;;;0.90;0.40;;;6.80;99.90;;;;;;6183262;23;20480;-83
2020/12/28 06:38:27;;;;;;;0.80;0.40;;;6.80;99.90;;;;;;6180794;23;20156;-84
2020/12/28 06:40:53;;;;;;;1.20;0.40;;;6.80;99.90;;;;;;6181493;23;20184;-84
2020/12/28 06:43:21;;;;;;;1.00;0.50;;;6.70;99.90;;;;;;6206734;23;20181;-83
2020/12/28 06:45:49;;;;;;;1.65;0.93;;;6.70;99.90;;;;;;6189411;23;20154;-84
2020/12/28 06:48:18;;;;;;;1.10;0.40;;;6.60;99.90;;;;;;6188297;23;20153;-83
2020/12/28 06:50:47;;;;;;;1.00;0.40;;;6.60;99.90;;;;;;6183145;23;20205;-84
2020/12/28 06:53:21;;;;;;;1.02;0.50;;;6.50;99.90;;;;;;6158733;23;20174;-83
2020/12/28 06:55:48;;;;;;;1.08;0.50;;;6.50;99.90;;;;;;6183389;23;20172;-83
2020/12/28 06:58:14;;;;;;;0.90;0.43;;;6.50;99.90;;;;;;6183089;23;20141;-83
2020/12/28 07:00:39;;;;;;;1.00;0.50;;;6.50;99.90;;;;;;6182888;23;20142;-83
2020/12/28 07:03:14;;;;;;;2.37;0.60;;;6.50;99.90;;;;;;6181558;23;20561;-83
2020/12/28 07:05:44;;;;;;;2.67;0.90;;;6.40;99.90;;;;;;6180551;23;20176;-83
2020/12/28 07:08:10;;;;;;;1.30;0.80;;;6.40;99.90;;;;;;6206706;23;20149;-82
2020/12/28 07:10:39;;;;;;;1.83;0.70;;;6.40;99.90;;;;;;6183425;23;20150;-83
2020/12/28 07:13:08;;;;;;;1.48;0.70;;;6.30;99.90;;;;;;6156744;23;20228;-83
2020/12/28 07:15:34;;;;;;;1.57;0.60;;;6.30;99.90;;;;;;6184427;23;20137;-85
2020/12/28 07:18:08;;;;;;;1.00;0.50;;;6.30;99.90;;;;;;6181335;23;20180;-83
2020/12/28 07:20:34;;;;;;;1.00;0.47;;;6.30;99.90;;;;;;6181505;23;20205;-84
2020/12/28 07:23:03;;;;;;;1.95;0.52;;;6.20;99.90;;;;;;6181925;23;20257;-83
2020/12/28 07:25:29;;;;;;;0.90;0.50;;;6.20;99.90;;;;;;6185246;23;20510;-83
2020/12/28 07:27:56;;;;;;;1.27;0.68;;;6.20;99.90;;;;;;6180165;23;20207;-84
2020/12/28 07:30:23;;;;;;;1.42;0.60;;;6.20;99.90;;;;;;6182063;23;20169;-83
2020/12/28 07:32:56;;;;;;;1.05;0.60;;;6.10;99.90;;;;;;6179305;23;20176;-84
2020/12/28 07:35:22;;;;;;;1.30;0.60;;;6.10;99.90;;;;;;6183157;23;20153;-83
2020/12/28 07:37:49;;;;;;;1.20;0.50;;;6.10;99.90;;;;;;6182455;23;20153;-83
2020/12/28 07:40:17;;;;;;;1.35;0.60;;;6.20;99.90;;;;;;6157131;23;20224;-83
2020/12/28 07:42:45;;;;;;;1.27;0.60;;;6.10;99.90;;;;;;6156230;23;20220;-83
2020/12/28 07:45:13;;;;;;;1.73;0.60;;;6.10;99.90;;;;;;6183266;23;20220;-83
2020/12/28 07:47:44;;;;;;;1.35;0.65;;;6.10;99.90;;;;;;6182625;23;20259;-83
2020/12/28 07:50:12;;;;;;;1.52;0.70;;;6.10;99.90;;;;;;6181221;23;20208;-83
2020/12/28 07:52:54;;;;;;;1.60;0.70;;;6.00;99.90;;;;;;6183355;23;20534;-83
2020/12/28 07:55:21;;;;;;;0.82;0.40;;;6.00;99.90;;;;;;6182261;23;20130;-82
2020/12/28 07:58:07;;;;;;;1.10;0.50;;;6.00;99.90;;;;;;6182253;23;20146;-82
2020/12/28 08:00:40;;;;;;;1.00;0.55;;;6.00;99.90;;;;;;6198022;23;20161;-83
2020/12/28 08:03:34;;;;;;;2.65;0.50;;;6.00;99.90;;;;;;6208038;23;20483;-82
2020/12/28 08:06:06;;;;;;;1.30;0.60;;;6.00;99.90;;;;;;6180740;23;20170;-84
2020/12/28 08:08:34;;;;;;;1.50;0.60;;;5.90;99.90;;;;;;6182201;23;20150;-83
2020/12/28 08:11:02;;;;;;;1.00;0.50;;;5.90;99.90;;;;;;6182004;23;20146;-84
2020/12/28 08:13:31;;;;;;;1.35;0.60;;;5.90;99.90;;;;;;6180791;23;20172;-83
2020/12/28 08:16:07;;;;;;;1.00;0.50;;;5.90;99.90;;;;;;6180195;23;20154;-83
2020/12/28 08:18:43;;;;;;;1.65;0.60;;;5.90;99.90;;;;;;6180170;23;20141;-83
2020/12/28 08:21:09;;;;;;;3.55;0.60;;;5.90;99.90;;;;;;6182073;23;20600;-83
2020/12/28 08:23:37;;;;;;;0.93;0.70;;;5.90;99.90;;;;;;6181110;23;20227;-84
2020/12/28 08:26:29;;;;;;;1.05;0.60;;;5.90;99.90;;;;;;6182149;23;20573;-83
2020/12/28 08:29:01;;;;;;;2.58;0.63;;;5.90;99.90;;;;;;6180548;23;20133;-83
2020/12/28 08:31:35;;;;;;;1.15;0.60;;;5.90;99.90;;;;;;6205265;23;20168;-84
2020/12/28 08:34:13;;;;;;;1.30;0.60;;;5.90;99.90;;;;;;6183236;23;20166;-85
2020/12/28 08:36:53;;;;;;;1.30;0.90;;;6.00;99.90;;;;;;6182954;23;20467;-84
2020/12/28 08:39:30;;;;;;;2.30;0.80;;;6.00;99.90;;;;;;6212178;23;20644;-84
2020/12/28 08:42:02;;;;;;;1.20;0.70;;;6.00;99.90;;;;;;6159485;23;20448;-85
2020/12/28 08:44:32;;;;;;;2.05;0.70;;;6.10;99.90;;;;;;6185143;23;20268;-83
2020/12/28 08:47:09;;;;;;;1.83;0.60;;;6.20;99.90;;;;;;6182758;23;20173;-82
2020/12/28 08:52:46;;;;;;;1.75;0.90;;;6.40;99.90;;;;;;6180318;23;20197;-83
2020/12/28 08:55:20;;;;;;;1.67;0.70;;;6.60;99.90;;;;;;6160105;23;20152;-82
2020/12/28 08:58:24;;;;;;;1.40;0.70;;;6.70;99.90;;;;;;6184292;23;20154;-86
2020/12/28 09:03:21;;;;;;;2.35;1.10;;;6.70;99.90;;;;;;6092216;23;20156;-86
2020/12/28 09:11:09;;;;;;;1.10;0.70;;;6.80;99.90;;;;;;5939523;24;20159;-85
2020/12/28 09:13:41;;;;;;;2.47;0.68;;;6.90;99.90;;;;;;6094450;23;20184;-84
2020/12/28 09:16:07;;;;;;;1.40;0.70;;;7.00;99.90;;;;;;6158324;23;20708;-84
2020/12/28 09:18:34;;;;;;;1.77;0.80;;;7.10;99.90;;;;;;6181695;23;20680;-81
2020/12/28 09:21:02;;;;;;;1.20;0.70;;;7.10;99.90;;;;;;6181594;23;20847;-81
2020/12/28 09:23:30;;;;;;;2.00;0.60;;;7.10;99.90;;;;;;6182129;23;20189;-82
2020/12/28 09:25:59;;;;;;;1.27;0.80;;;7.10;99.90;;;;;;6193777;23;20658;-82
2020/12/28 09:28:25;;;;;;;1.80;0.90;;;7.10;99.90;;;;;;6202433;23;20653;-81
2020/12/28 09:31:37;;;;;;;2.03;0.70;;;7.00;99.90;;;;;;6205040;23;20152;-83
2020/12/28 09:34:10;;;;;;;2.45;0.65;;;7.10;99.90;;;;;;6202644;23;20660;-83
2020/12/28 09:36:36;;;;;;;2.25;0.70;;;7.10;99.90;;;;;;6183898;23;20122;-83
2020/12/28 09:39:02;;;;;;;2.07;0.97;;;7.10;99.90;;;;;;6207728;23;20180;-82
2020/12/28 09:41:31;;;;;;;1.20;0.80;;;7.00;99.90;;;;;;6186045;23;20181;-82
2020/12/28 09:43:57;;;;;;;2.05;0.90;;;7.00;99.90;;;;;;6185209;23;20174;-83
2020/12/28 09:46:23;;;;;;;1.30;0.80;;;6.90;99.90;;;;;;6187185;23;20173;-81
2020/12/28 09:48:50;;;;;;;1.10;0.70;;;6.90;99.90;;;;;;6183285;23;20178;-81
2020/12/28 09:51:17;;;;;;;1.55;0.90;;;6.90;99.90;;;;;;6160751;23;20232;-82
2020/12/28 09:53:46;;;;;;;1.63;0.73;;;6.80;99.90;;;;;;6187974;23;20176;-81
2020/12/28 09:56:15;;;;;;;1.20;0.60;;;6.80;99.90;;;;;;6185523;23;20204;-82
2020/12/28 09:58:43;;;;;;;1.43;0.60;;;6.80;99.90;;;;;;6131623;23;20165;-83
2020/12/28 10:01:10;;;;;;;1.90;0.80;;;6.90;99.90;;;;;;6181943;23;20750;-82
2020/12/28 10:03:37;;;;;;;1.40;0.70;;;6.90;99.90;;;;;;6182708;23;20173;-84
2020/12/28 10:06:31;;;;;;;1.98;0.90;;;6.90;99.90;;;;;;6181298;23;20138;-81
2020/12/28 10:08:49;;;;;;;1.40;0.70;;;7.00;99.90;;;;;;6182394;23;20222;-82
2020/12/28 10:11:15;;;;;;;2.80;0.70;;;7.10;99.90;;;;;;6181636;23;20241;-83
2020/12/28 10:13:41;;;;;;;1.25;0.68;;;7.10;99.90;;;;;;6156142;23;20698;-84
2020/12/28 10:16:09;;;;;;;1.37;0.90;;;7.20;99.90;;;;;;6181909;23;20174;-86
2020/12/28 10:18:39;;;;;;;1.30;0.70;;;7.20;99.90;;;;;;6179145;23;20619;-83
2020/12/28 10:21:09;;;;;;;1.67;0.70;;;7.40;99.90;;;;;;6179527;23;20153;-83
2020/12/28 10:23:35;;;;;;;1.88;0.95;;;7.40;99.90;;;;;;6180657;23;20225;-82
2020/12/28 10:26:06;;;;;;;2.50;1.27;;;7.40;99.90;;;;;;6156020;23;20242;-83
2020/12/28 10:28:46;;;;;;;;;;;;;;;;;;;;;
2020/12/28 10:31:14;;;;;;;1.50;0.70;;;7.50;99.90;;;;;;6163553;23;20204;-84
2020/12/28 10:33:41;;;;;;;1.92;0.70;;;7.60;99.90;;;;;;6207685;23;20169;-84
2020/12/28 10:36:20;;;;;;;1.50;0.70;;;7.60;99.90;;;;;;6157402;23;20696;-84
2020/12/28 10:38:50;;;;;;;1.45;0.70;;;7.60;99.90;;;;;;6180898;23;20165;-83
2020/12/28 10:41:29;;;;;;;1.10;0.50;;;7.60;99.90;;;;;;6180057;23;20248;-82
2020/12/28 10:43:56;;;;;;;1.65;0.70;;;7.60;99.90;;;;;;6187210;23;20220;-82
2020/12/28 10:46:22;;;;;;;1.42;0.60;;;7.60;99.90;;;;;;6157764;23;20232;-83
2020/12/28 10:48:48;;;;;;;2.30;0.80;;;7.70;99.90;;;;;;6156451;23;20145;-82
2020/12/28 10:51:14;;;;;;;2.10;0.70;;;7.80;99.90;;;;;;6181090;23;20142;-84
2020/12/28 10:53:40;;;;;;;1.80;0.70;;;7.80;99.90;;;;;;6184817;23;21122;-82
2020/12/28 10:56:07;;;;;;;2.57;0.83;;;7.80;99.90;;;;;;6182742;23;20169;-81
2020/12/28 11:18:57;;;;;;;1.48;0.70;;;8.10;99.90;;;;;;6103542;23;20186;-80
2020/12/28 11:21:25;;;;;;;0.98;0.60;;;8.10;99.90;;;;;;6152974;23;20648;-80
2020/12/28 11:24:02;;;;;;;1.60;0.60;;;8.20;99.90;;;;;;6151164;23;20285;-82
2020/12/28 11:26:37;;;;;;;2.05;0.70;;;8.30;99.90;;;;;;6126318;23;20178;-82
2020/12/28 11:29:05;;;;;;;4.85;0.75;;;8.40;99.90;;;;;;6151376;23;20138;-82
2020/12/28 11:31:31;;;;;;;1.20;0.70;;;8.50;99.90;;;;;;6152966;23;20149;-81
2020/12/28 11:33:57;;;;;;;1.45;0.70;;;8.40;99.90;;;;;;6152203;23;20561;-81
2020/12/28 11:36:23;;;;;;;1.53;0.60;;;8.50;99.90;;;;;;6151325;23;20200;-81
2020/12/28 11:38:49;;;;;;;1.90;0.80;;;8.70;99.90;;;;;;6152473;23;20545;-82
2020/12/28 11:41:16;;;;;;;2.57;0.70;;;8.80;99.90;;;;;;6127782;23;21318;-81
2020/12/28 12:01:11;;;;;;;3.70;0.75;;;9.20;99.90;;;;;;6092288;23;20176;-83
2020/12/28 12:03:37;;;;;;;1.52;0.70;;;9.20;99.90;;;;;;6117089;23;20176;-84
2020/12/28 12:06:03;;;;;;;1.50;0.67;;;9.20;99.90;;;;;;6093703;23;20148;-84
2020/12/28 12:08:29;;;;;;;1.67;0.70;;;9.20;99.90;;;;;;6092533;23;20493;-81
2020/12/28 12:10:58;;;;;;;4.05;0.85;;;9.30;99.90;;;;;;6093314;23;20524;-81
2020/12/28 12:13:24;;;;;;;1.52;0.70;;;9.30;99.90;;;;;;6092020;23;20167;-82
2020/12/28 12:15:52;;;;;;;1.40;0.70;;;9.30;99.90;;;;;;6092175;23;20132;-82
2020/12/28 12:18:18;;;;;;;1.27;0.80;;;9.20;99.90;;;;;;6093206;23;20569;-83
2020/12/28 12:20:44;;;;;;;3.00;0.90;;;9.20;99.90;;;;;;6092181;23;20152;-81
2020/12/28 12:23:10;;;;;;;2.10;0.73;;;9.10;99.90;;;;;;6068670;23;20164;-81
2020/12/28 12:25:36;;;;;;;2.72;0.90;;;9.00;99.90;;;;;;6092937;23;20219;-82
2020/12/28 12:28:02;;;;;;;2.30;0.80;;;9.00;99.90;;;;;;6067823;23;20218;-82
2020/12/28 12:30:29;;;;;;;1.50;0.80;;;8.80;99.90;;;;;;6068393;23;20170;-82
2020/12/28 12:32:58;;;;;;;1.48;0.70;;;8.80;99.90;;;;;;6093481;23;20505;-83
2020/12/28 12:35:24;;;;;;;2.47;1.00;;;8.70;99.90;;;;;;6091790;23;20186;-82
2020/12/28 12:37:49;;;;;;;1.30;0.70;;;8.80;99.90;;;;;;6092812;23;20163;-82
2020/12/28 12:40:16;;;;;;;1.50;0.83;;;8.70;99.90;;;;;;6093635;23;20152;-81
2020/12/28 12:42:41;;;;;;;1.90;0.85;;;8.70;99.90;;;;;;6093016;23;20679;-81
2020/12/28 12:45:07;;;;;;;1.50;0.80;;;8.70;99.90;;;;;;6091977;23;20179;-81
2020/12/28 12:47:33;;;;;;;1.30;0.73;;;8.80;99.90;;;;;;6092672;23;20598;-81
2020/12/28 12:49:59;;;;;;;1.47;0.70;;;8.70;99.90;;;;;;6093407;23;20556;-79
2020/12/28 12:52:25;;;;;;;1.03;0.60;;;8.70;99.90;;;;;;6093267;23;20144;-82
2020/12/28 12:54:51;;;;;;;1.60;1.00;;;8.70;99.90;;;;;;6068140;23;20552;-83
2020/12/28 12:57:18;;;;;;;2.00;0.90;;;8.80;99.90;;;;;;6091421;23;20211;-83
2020/12/28 13:02:28;;;;;;;5.95;2.35;;;8.80;99.90;;;;;;6093427;23;20140;-82
2020/12/28 13:04:54;;;;;;;2.53;0.85;;;8.70;99.90;;;;;;6093333;23;20162;-82
2020/12/28 13:07:20;;;;;;;1.70;0.80;;;8.70;99.90;;;;;;6093243;23;20171;-82
2020/12/28 13:09:46;;;;;;;1.02;0.68;;;8.70;99.90;;;;;;6093785;23;20174;-82
2020/12/28 13:12:13;;;;;;;2.85;1.10;;;8.70;99.90;;;;;;6091804;23;20173;-81
2020/12/28 13:14:39;;;;;;;3.13;0.73;;;8.70;99.90;;;;;;6093050;23;20490;-80
2020/12/28 13:17:05;;;;;;;2.28;1.42;;;8.70;99.90;;;;;;6091498;23;20993;-82
2020/12/28 13:19:31;;;;;;;5.80;3.17;;;8.80;99.90;;;;;;6091133;23;20207;-79
2020/12/28 13:21:56;;;;;;;5.20;2.73;;;8.80;99.90;;;;;;6092978;23;20239;-83
2020/12/28 13:24:22;;;;;;;3.83;2.13;;;8.80;99.90;;;;;;6068175;23;20258;-81
2020/12/28 13:26:48;;;;;;;2.30;1.43;;;8.80;99.90;;;;;;6093302;23;20555;-80
2020/12/28 13:29:14;;;;;;;1.40;0.88;;;8.90;99.90;;;;;;6092746;23;20148;-80
2020/12/28 13:31:40;;;;;;;2.03;0.80;;;8.90;99.90;;;;;;6067607;23;20543;-81
2020/12/28 13:34:06;;;;;;;1.20;0.63;;;8.90;99.90;;;;;;6044433;23;20635;-81
2020/12/28 13:36:33;;;;;;;1.20;0.80;;;9.00;99.90;;;;;;6098072;23;20540;-80
2020/12/28 13:38:59;;;;;;;1.30;0.70;;;9.00;99.90;;;;;;6093148;23;20899;-82
2020/12/28 13:41:25;;;;;;;1.95;0.80;;;9.00;99.90;;;;;;6066261;23;20669;-80
2020/12/28 13:43:50;;;;;;;2.63;0.95;;;8.90;99.90;;;;;;6092794;23;20227;-82
2020/12/28 13:46:16;;;;;;;1.70;0.70;;;9.00;99.90;;;;;;6092253;23;20183;-80
2020/12/28 13:48:42;;;;;;;2.53;1.10;;;9.00;99.90;;;;;;6090865;23;20964;-80
2020/12/28 13:51:08;;;;;;;1.80;1.00;;;9.00;99.90;;;;;;6093226;23;20855;-80
2020/12/28 13:53:34;;;;;;;1.40;0.85;;;9.00;99.90;;;;;;6091093;23;20563;-80
2020/12/28 13:56:00;;;;;;;2.27;0.90;;;9.10;99.90;;;;;;6091851;23;20155;-81
2020/12/28 13:58:27;;;;;;;1.63;0.70;;;9.10;99.90;;;;;;6092520;23;20208;-80
2020/12/28 14:00:53;;;;;;;1.90;0.90;;;9.00;99.90;;;;;;6092905;23;20164;-79
2020/12/28 14:03:19;;;;;;;1.67;0.70;;;9.00;99.90;;;;;;6092663;23;20540;-81
2020/12/28 14:05:45;;;;;;;1.63;0.70;;;9.10;99.90;;;;;;6093684;23;20532;-79
2020/12/28 14:08:13;;;;;;;1.30;0.70;;;9.10;99.90;;;;;;6094092;23;20183;-80